»·PEaware :: N2494V KMSO-KGPI

N2494V :: KMSO-KGPI

FLIGHT INFORMATION

Flight Status: Arrived
Operator: Privately registered:
United States
More flights under this callsign
Pilot: Sally S. (18014)
Aircraft: Unknown
(DA62)
More flights by this aircraft type
Origin: KMSO Missoula Intl
United States
Destination: KGPI Glacier Park Intl
United States
More flights between these airports :: More routes between these airports
Route: + DIDLY4 FCA
File this flight plan on PilotEdge
Remarks:
Altitude:
(Current/Filed)
14,000ft
Speed:
(Current/Filed)
165kts
Departed: 11-May-18 12:58 PM
Arrived: 11-May-18 01:39 PM
Distance/Time
Traveled:
84nm/0:41
Distance/Time
To Go:
Arrived

Flight Plot

Page will automatically refresh every two minutes.

Flight plan parsing failed; only flown route is shown


Map Options




Map Legend


Flown Route
Filed Route
Departure Airport
Arrival Airport
Navaid (VOR, NDB)
Fix

Horizontal Profiles

Position Reports

Time Latitude Longitude Heading Altitude Ground
Speed
11-May-18 12:37 46.914608 -114.077456 358 3209ft 0kts
11-May-18 12:38 46.914608 -114.077456 358 3209ft 0kts
11-May-18 12:39 46.914608 -114.077456 358 3209ft 0kts
11-May-18 12:40 46.914608 -114.077456 358 3209ft 0kts
11-May-18 12:41 46.914608 -114.077456 358 3209ft 0kts
11-May-18 12:42 46.914608 -114.077456 358 3209ft 0kts
11-May-18 12:43 46.914608 -114.077456 358 3209ft 0kts
11-May-18 12:44 46.914608 -114.077456 358 3209ft 0kts
11-May-18 12:45 46.914608 -114.077456 358 3209ft 0kts
11-May-18 12:46 46.914608 -114.077456 358 3209ft 0kts
11-May-18 12:47 46.914608 -114.077456 358 3209ft 0kts
11-May-18 12:48 46.914608 -114.077456 358 3209ft 0kts
11-May-18 12:49 46.914608 -114.077456 358 3209ft 0kts
11-May-18 12:50 46.914608 -114.077456 358 3209ft 0kts
11-May-18 12:51 46.914608 -114.077456 358 3209ft 0kts
11-May-18 12:52 46.914608 -114.077456 358 3209ft 0kts
11-May-18 12:53 46.914608 -114.077456 358 3209ft 0kts
11-May-18 12:54 46.914831 -114.077493 348 3209ft 9kts
11-May-18 12:55 46.912746 -114.082018 140 3209ft 19kts
11-May-18 12:56 46.908838 -114.077203 186 3209ft 0kts
11-May-18 12:57 46.908839 -114.077203 186 3209ft 0kts
11-May-18 12:58 46.913152 -114.086701 309 3308ft 91kts
11-May-18 12:59 46.926902 -114.114319 312 4766ft 83kts
11-May-18 13:00 46.942070 -114.140657 315 5966ft 86kts
11-May-18 13:01 46.957900 -114.167391 317 7163ft 88kts
11-May-18 13:02 46.974349 -114.194997 318 8281ft 96kts
11-May-18 13:03 46.992317 -114.225198 319 9416ft 100kts
11-May-18 13:04 47.011701 -114.257648 319 10366ft 118kts
11-May-18 13:05 47.033689 -114.294699 320 11337ft 123kts
11-May-18 13:06 47.051048 -114.337548 259 12299ft 149kts
11-May-18 13:07 47.022452 -114.336072 95 13270ft 124kts
11-May-18 13:08 47.025097 -114.295687 4 14007ft 132kts
11-May-18 13:09 47.066481 -114.303652 6 14000ft 160kts
11-May-18 13:10 47.109904 -114.299593 8 14002ft 159kts
11-May-18 13:11 47.152620 -114.294913 8 14002ft 161kts
11-May-18 13:12 47.196175 -114.290133 8 14002ft 161kts
11-May-18 13:13 47.240967 -114.285204 7 14001ft 162kts
11-May-18 13:14 47.285751 -114.280272 8 14001ft 162kts
11-May-18 13:15 47.330110 -114.275341 8 14095ft 158kts
11-May-18 13:16 47.375051 -114.270317 8 14001ft 162kts
11-May-18 13:17 47.419894 -114.265376 8 14000ft 162kts
11-May-18 13:18 47.464822 -114.260396 8 13982ft 162kts
11-May-18 13:19 47.509427 -114.255443 8 13982ft 161kts
11-May-18 13:20 47.554110 -114.250466 8 13983ft 161kts
11-May-18 13:21 47.598793 -114.245482 8 13985ft 161kts
11-May-18 13:22 47.643513 -114.240483 8 13988ft 161kts
11-May-18 13:23 47.689135 -114.235329 7 13613ft 177kts
11-May-18 13:24 47.739327 -114.229694 7 12683ft 184kts
11-May-18 13:25 47.790074 -114.223996 7 11684ft 184kts
11-May-18 13:26 47.840797 -114.218283 7 10678ft 183kts
11-May-18 13:27 47.890708 -114.212652 7 9673ft 179kts
11-May-18 13:28 47.938809 -114.207244 7 8987ft 161kts
11-May-18 13:29 47.980591 -114.229689 346 8358ft 172kts
11-May-18 13:30 48.027576 -114.246951 351 7352ft 175kts
11-May-18 13:31 48.075223 -114.256473 3 6339ft 170kts
11-May-18 13:32 48.117731 -114.259136 353 5385ft 160kts
11-May-18 13:33 48.158679 -114.269841 355 4986ft 133kts
11-May-18 13:34 48.193046 -114.277764 354 4526ft 126kts
11-May-18 13:35 48.226491 -114.288194 352 4185ft 126kts
11-May-18 13:36 48.256010 -114.298074 353 3853ft 105kts
11-May-18 13:37 48.280838 -114.286248 33 3436ft 88kts
11-May-18 13:38 48.300017 -114.266399 34 3005ft 79kts
11-May-18 13:39 48.306181 -114.258241 91 2981ft 3kts
11-May-18 13:40 48.310276 -114.252205 92 2981ft 20kts
11-May-18 13:41 48.310799 -114.250530 30 2981ft 0kts

Navigation Log

Ident Type
Flight plan parsing failed, navigation log unavailable